sensor_id;sensor_type;location;lat;lon;timestamp;temperature;humidity
36498;DHT22;22513;51.222;6.480;2022-08-19T00:01:27;18.00;99.90
36498;DHT22;22513;51.222;6.480;2022-08-19T00:03:55;18.00;99.90
36498;DHT22;22513;51.222;6.480;2022-08-19T00:06:21;17.90;99.90
36498;DHT22;22513;51.222;6.480;2022-08-19T00:08:46;17.90;99.90
36498;DHT22;22513;51.222;6.480;2022-08-19T00:11:12;17.80;99.90
36498;DHT22;22513;51.222;6.480;2022-08-19T00:13:38;17.70;99.90
36498;DHT22;22513;51.222;6.480;2022-08-19T00:16:05;17.70;99.90
36498;DHT22;22513;51.222;6.480;2022-08-19T00:18:32;17.60;99.90
36498;DHT22;22513;51.222;6.480;2022-08-19T00:20:58;17.60;99.90
36498;DHT22;22513;51.222;6.480;2022-08-19T00:23:25;17.60;99.90
36498;DHT22;22513;51.222;6.480;2022-08-19T00:25:51;17.60;99.90
36498;DHT22;22513;51.222;6.480;2022-08-19T00:28:17;17.60;99.90
36498;DHT22;22513;51.222;6.480;2022-08-19T00:30:43;17.60;99.90
36498;DHT22;22513;51.222;6.480;2022-08-19T00:33:09;17.50;99.90
36498;DHT22;22513;51.222;6.480;2022-08-19T00:35:35;17.60;99.90
36498;DHT22;22513;51.222;6.480;2022-08-19T00:38:00;17.50;99.90
36498;DHT22;22513;51.222;6.480;2022-08-19T00:40:26;17.50;99.90
36498;DHT22;22513;51.222;6.480;2022-08-19T00:42:52;17.50;99.90
36498;DHT22;22513;51.222;6.480;2022-08-19T00:45:22;17.40;99.90
36498;DHT22;22513;51.222;6.480;2022-08-19T00:47:48;17.40;99.90
36498;DHT22;22513;51.222;6.480;2022-08-19T00:50:17;17.30;99.90
36498;DHT22;22513;51.222;6.480;2022-08-19T00:52:46;17.40;99.90
36498;DHT22;22513;51.222;6.480;2022-08-19T00:55:24;17.40;99.90
36498;DHT22;22513;51.222;6.480;2022-08-19T00:58:02;17.40;99.90
36498;DHT22;22513;51.222;6.480;2022-08-19T01:00:30;17.30;99.90
36498;DHT22;22513;51.222;6.480;2022-08-19T01:02:56;17.30;99.90
36498;DHT22;22513;51.222;6.480;2022-08-19T01:05:27;17.30;99.90
36498;DHT22;22513;51.222;6.480;2022-08-19T01:07:55;17.30;99.90
36498;DHT22;22513;51.222;6.480;2022-08-19T01:10:24;17.20;99.90
36498;DHT22;22513;51.222;6.480;2022-08-19T01:12:51;17.20;99.90
36498;DHT22;22513;51.222;6.480;2022-08-19T01:15:21;17.20;99.90
36498;DHT22;22513;51.222;6.480;2022-08-19T01:17:48;17.20;99.90
36498;DHT22;22513;51.222;6.480;2022-08-19T01:20:17;17.20;99.90
36498;DHT22;22513;51.222;6.480;2022-08-19T01:22:47;17.10;99.90
36498;DHT22;22513;51.222;6.480;2022-08-19T01:25:19;17.10;99.90
36498;DHT22;22513;51.222;6.480;2022-08-19T01:27:48;17.10;99.90
36498;DHT22;22513;51.222;6.480;2022-08-19T01:30:22;17.10;99.90
36498;DHT22;22513;51.222;6.480;2022-08-19T01:32:50;17.00;99.90
36498;DHT22;22513;51.222;6.480;2022-08-19T01:35:16;17.00;99.90
36498;DHT22;22513;51.222;6.480;2022-08-19T01:37:52;16.90;99.90
36498;DHT22;22513;51.222;6.480;2022-08-19T01:40:19;16.90;99.90
36498;DHT22;22513;51.222;6.480;2022-08-19T01:42:47;16.90;99.90
36498;DHT22;22513;51.222;6.480;2022-08-19T01:45:13;16.80;99.90
36498;DHT22;22513;51.222;6.480;2022-08-19T01:47:39;16.90;99.90
36498;DHT22;22513;51.222;6.480;2022-08-19T01:50:07;16.80;99.90
36498;DHT22;22513;51.222;6.480;2022-08-19T01:52:36;16.90;99.90
36498;DHT22;22513;51.222;6.480;2022-08-19T01:55:03;16.80;99.90
36498;DHT22;22513;51.222;6.480;2022-08-19T01:57:29;16.80;99.90
36498;DHT22;22513;51.222;6.480;2022-08-19T01:59:55;16.70;99.90
36498;DHT22;22513;51.222;6.480;2022-08-19T02:02:22;16.60;99.90
36498;DHT22;22513;51.222;6.480;2022-08-19T02:04:47;16.60;99.90
36498;DHT22;22513;51.222;6.480;2022-08-19T02:07:13;16.60;99.90
36498;DHT22;22513;51.222;6.480;2022-08-19T02:09:39;16.70;99.90
36498;DHT22;22513;51.222;6.480;2022-08-19T02:12:06;16.80;99.90
36498;DHT22;22513;51.222;6.480;2022-08-19T02:14:34;16.70;99.90
36498;DHT22;22513;51.222;6.480;2022-08-19T02:17:00;16.80;99.90
36498;DHT22;22513;51.222;6.480;2022-08-19T02:19:26;16.70;99.90
36498;DHT22;22513;51.222;6.480;2022-08-19T02:21:52;16.70;99.90
36498;DHT22;22513;51.222;6.480;2022-08-19T02:24:18;16.70;99.90
36498;DHT22;22513;51.222;6.480;2022-08-19T02:26:43;16.70;99.90
36498;DHT22;22513;51.222;6.480;2022-08-19T02:29:09;16.60;99.90
36498;DHT22;22513;51.222;6.480;2022-08-19T02:31:34;16.60;99.90
36498;DHT22;22513;51.222;6.480;2022-08-19T02:34:00;16.60;99.90
36498;DHT22;22513;51.222;6.480;2022-08-19T02:36:26;16.50;99.90
36498;DHT22;22513;51.222;6.480;2022-08-19T02:38:53;16.50;99.90
36498;DHT22;22513;51.222;6.480;2022-08-19T02:41:28;16.50;99.90
36498;DHT22;22513;51.222;6.480;2022-08-19T02:43:58;16.60;99.90
36498;DHT22;22513;51.222;6.480;2022-08-19T02:46:27;16.60;99.90
36498;DHT22;22513;51.222;6.480;2022-08-19T02:48:57;16.60;99.90
36498;DHT22;22513;51.222;6.480;2022-08-19T02:51:27;16.60;99.90
36498;DHT22;22513;51.222;6.480;2022-08-19T02:53:53;16.60;99.90
36498;DHT22;22513;51.222;6.480;2022-08-19T02:56:19;16.60;99.90
36498;DHT22;22513;51.222;6.480;2022-08-19T02:58:45;16.60;99.90
36498;DHT22;22513;51.222;6.480;2022-08-19T03:01:18;16.50;99.90
36498;DHT22;22513;51.222;6.480;2022-08-19T03:03:44;16.50;99.90
36498;DHT22;22513;51.222;6.480;2022-08-19T03:06:13;16.50;99.90
36498;DHT22;22513;51.222;6.480;2022-08-19T03:08:41;16.40;99.90
36498;DHT22;22513;51.222;6.480;2022-08-19T03:11:17;16.40;99.90
36498;DHT22;22513;51.222;6.480;2022-08-19T03:13:43;16.30;99.90
36498;DHT22;22513;51.222;6.480;2022-08-19T03:16:09;16.20;99.90
36498;DHT22;22513;51.222;6.480;2022-08-19T03:18:35;16.20;99.90
36498;DHT22;22513;51.222;6.480;2022-08-19T03:21:01;16.10;99.90
36498;DHT22;22513;51.222;6.480;2022-08-19T03:23:26;16.00;99.90
36498;DHT22;22513;51.222;6.480;2022-08-19T03:25:53;16.00;99.90
36498;DHT22;22513;51.222;6.480;2022-08-19T03:28:19;16.00;99.90
36498;DHT22;22513;51.222;6.480;2022-08-19T03:31:00;16.10;99.90
36498;DHT22;22513;51.222;6.480;2022-08-19T03:33:26;16.10;99.90
36498;DHT22;22513;51.222;6.480;2022-08-19T03:36:14;16.10;99.90
36498;DHT22;22513;51.222;6.480;2022-08-19T03:38:46;16.10;99.90
36498;DHT22;22513;51.222;6.480;2022-08-19T03:41:15;16.10;99.90
36498;DHT22;22513;51.222;6.480;2022-08-19T03:43:41;16.20;99.90
36498;DHT22;22513;51.222;6.480;2022-08-19T03:46:10;16.20;99.90
36498;DHT22;22513;51.222;6.480;2022-08-19T03:48:38;16.10;99.90
36498;DHT22;22513;51.222;6.480;2022-08-19T03:51:06;16.10;99.90
36498;DHT22;22513;51.222;6.480;2022-08-19T03:53:34;16.10;99.90
36498;DHT22;22513;51.222;6.480;2022-08-19T03:56:00;16.10;99.90
36498;DHT22;22513;51.222;6.480;2022-08-19T03:58:28;16.10;99.90
36498;DHT22;22513;51.222;6.480;2022-08-19T04:00:55;16.00;99.90
36498;DHT22;22513;51.222;6.480;2022-08-19T04:03:23;16.00;99.90
36498;DHT22;22513;51.222;6.480;2022-08-19T04:05:48;16.00;99.90
36498;DHT22;22513;51.222;6.480;2022-08-19T04:08:15;16.00;99.90
36498;DHT22;22513;51.222;6.480;2022-08-19T04:10:46;16.00;99.90
36498;DHT22;22513;51.222;6.480;2022-08-19T04:13:12;16.00;99.90
36498;DHT22;22513;51.222;6.480;2022-08-19T04:15:42;16.10;99.90
36498;DHT22;22513;51.222;6.480;2022-08-19T04:18:09;16.10;99.90
36498;DHT22;22513;51.222;6.480;2022-08-19T04:20:39;16.10;99.90
36498;DHT22;22513;51.222;6.480;2022-08-19T04:23:05;16.20;99.90
36498;DHT22;22513;51.222;6.480;2022-08-19T04:25:39;16.20;99.90
36498;DHT22;22513;51.222;6.480;2022-08-19T04:28:05;16.30;99.90
36498;DHT22;22513;51.222;6.480;2022-08-19T04:30:36;16.30;99.90
36498;DHT22;22513;51.222;6.480;2022-08-19T04:33:02;16.30;99.90
36498;DHT22;22513;51.222;6.480;2022-08-19T04:35:38;16.30;99.90
36498;DHT22;22513;51.222;6.480;2022-08-19T04:38:05;16.20;99.90
36498;DHT22;22513;51.222;6.480;2022-08-19T04:40:31;16.30;99.90
36498;DHT22;22513;51.222;6.480;2022-08-19T04:43:26;16.40;99.90
36498;DHT22;22513;51.222;6.480;2022-08-19T04:45:53;16.40;99.90
36498;DHT22;22513;51.222;6.480;2022-08-19T04:48:18;16.40;99.90
36498;DHT22;22513;51.222;6.480;2022-08-19T04:50:52;16.40;99.90
36498;DHT22;22513;51.222;6.480;2022-08-19T04:53:33;16.50;99.90
36498;DHT22;22513;51.222;6.480;2022-08-19T04:55:59;16.60;99.90
36498;DHT22;22513;51.222;6.480;2022-08-19T04:58:27;16.60;99.90
36498;DHT22;22513;51.222;6.480;2022-08-19T05:00:53;16.70;99.90
36498;DHT22;22513;51.222;6.480;2022-08-19T05:03:19;16.80;99.90
36498;DHT22;22513;51.222;6.480;2022-08-19T05:05:47;16.90;99.90
36498;DHT22;22513;51.222;6.480;2022-08-19T05:08:19;17.00;99.90
36498;DHT22;22513;51.222;6.480;2022-08-19T05:10:47;17.20;99.90
36498;DHT22;22513;51.222;6.480;2022-08-19T05:13:14;17.30;99.90
36498;DHT22;22513;51.222;6.480;2022-08-19T05:15:40;17.50;99.90
36498;DHT22;22513;51.222;6.480;2022-08-19T05:18:06;17.60;99.90
36498;DHT22;22513;51.222;6.480;2022-08-19T05:20:51;17.80;99.90
36498;DHT22;22513;51.222;6.480;2022-08-19T05:23:35;18.00;99.90
36498;DHT22;22513;51.222;6.480;2022-08-19T05:26:00;18.30;99.90
36498;DHT22;22513;51.222;6.480;2022-08-19T05:28:26;18.60;99.90
36498;DHT22;22513;51.222;6.480;2022-08-19T05:30:55;18.90;99.90
36498;DHT22;22513;51.222;6.480;2022-08-19T05:33:22;19.40;99.90
36498;DHT22;22513;51.222;6.480;2022-08-19T05:35:49;19.80;99.90
36498;DHT22;22513;51.222;6.480;2022-08-19T05:38:17;20.30;99.90
36498;DHT22;22513;51.222;6.480;2022-08-19T05:40:43;20.60;99.90
36498;DHT22;22513;51.222;6.480;2022-08-19T05:43:12;20.90;99.90
36498;DHT22;22513;51.222;6.480;2022-08-19T05:45:41;21.30;99.90
36498;DHT22;22513;51.222;6.480;2022-08-19T05:48:08;21.80;99.90
36498;DHT22;22513;51.222;6.480;2022-08-19T05:50:37;22.10;99.90
36498;DHT22;22513;51.222;6.480;2022-08-19T05:53:03;22.50;99.90
36498;DHT22;22513;51.222;6.480;2022-08-19T05:55:29;22.90;99.90
36498;DHT22;22513;51.222;6.480;2022-08-19T05:57:55;23.30;99.90
36498;DHT22;22513;51.222;6.480;2022-08-19T06:00:20;23.70;99.90
36498;DHT22;22513;51.222;6.480;2022-08-19T06:02:46;24.20;99.90
36498;DHT22;22513;51.222;6.480;2022-08-19T06:05:12;24.70;99.90
36498;DHT22;22513;51.222;6.480;2022-08-19T06:07:39;25.00;99.90
36498;DHT22;22513;51.222;6.480;2022-08-19T06:10:07;25.50;99.90
36498;DHT22;22513;51.222;6.480;2022-08-19T06:12:35;26.00;99.90
36498;DHT22;22513;51.222;6.480;2022-08-19T06:15:03;26.30;99.90
36498;DHT22;22513;51.222;6.480;2022-08-19T06:17:29;26.50;99.90
36498;DHT22;22513;51.222;6.480;2022-08-19T06:19:55;27.00;99.90
36498;DHT22;22513;51.222;6.480;2022-08-19T06:22:21;27.20;99.90
36498;DHT22;22513;51.222;6.480;2022-08-19T06:24:47;27.30;99.90
36498;DHT22;22513;51.222;6.480;2022-08-19T06:27:13;27.60;99.90
36498;DHT22;22513;51.222;6.480;2022-08-19T06:29:38;27.70;99.70
36498;DHT22;22513;51.222;6.480;2022-08-19T06:32:04;27.70;99.60
36498;DHT22;22513;51.222;6.480;2022-08-19T06:34:32;27.80;99.80
36498;DHT22;22513;51.222;6.480;2022-08-19T06:37:00;27.90;99.20
36498;DHT22;22513;51.222;6.480;2022-08-19T06:39:32;27.80;99.40
36498;DHT22;22513;51.222;6.480;2022-08-19T06:42:00;27.70;99.10
36498;DHT22;22513;51.222;6.480;2022-08-19T06:44:28;27.60;98.90
36498;DHT22;22513;51.222;6.480;2022-08-19T06:46:55;27.30;98.80
36498;DHT22;22513;51.222;6.480;2022-08-19T06:49:22;27.00;99.10
36498;DHT22;22513;51.222;6.480;2022-08-19T06:51:48;26.80;99.20
36498;DHT22;22513;51.222;6.480;2022-08-19T06:54:15;26.70;99.20
36498;DHT22;22513;51.222;6.480;2022-08-19T06:56:41;26.70;99.70
36498;DHT22;22513;51.222;6.480;2022-08-19T06:59:14;26.90;99.90
36498;DHT22;22513;51.222;6.480;2022-08-19T07:01:43;27.30;99.20
36498;DHT22;22513;51.222;6.480;2022-08-19T07:04:14;27.40;98.60
36498;DHT22;22513;51.222;6.480;2022-08-19T07:06:41;27.60;97.90
36498;DHT22;22513;51.222;6.480;2022-08-19T07:09:09;27.80;98.20
36498;DHT22;22513;51.222;6.480;2022-08-19T07:11:34;28.10;97.40
36498;DHT22;22513;51.222;6.480;2022-08-19T07:14:01;28.20;96.60
36498;DHT22;22513;51.222;6.480;2022-08-19T07:16:28;27.80;96.00
36498;DHT22;22513;51.222;6.480;2022-08-19T07:18:54;27.10;96.70
36498;DHT22;22513;51.222;6.480;2022-08-19T07:21:23;26.70;97.50
36498;DHT22;22513;51.222;6.480;2022-08-19T07:23:50;26.60;98.00
36498;DHT22;22513;51.222;6.480;2022-08-19T07:26:20;26.60;97.50
36498;DHT22;22513;51.222;6.480;2022-08-19T07:28:47;26.20;97.90
36498;DHT22;22513;51.222;6.480;2022-08-19T07:31:21;26.00;98.00
36498;DHT22;22513;51.222;6.480;2022-08-19T07:33:49;25.90;98.70
36498;DHT22;22513;51.222;6.480;2022-08-19T07:36:18;25.90;98.50
36498;DHT22;22513;51.222;6.480;2022-08-19T07:38:45;26.10;98.30
36498;DHT22;22513;51.222;6.480;2022-08-19T07:41:15;26.20;98.30
36498;DHT22;22513;51.222;6.480;2022-08-19T07:43:41;26.40;97.90
36498;DHT22;22513;51.222;6.480;2022-08-19T07:46:09;26.60;97.70
36498;DHT22;22513;51.222;6.480;2022-08-19T07:48:36;26.90;96.50
36498;DHT22;22513;51.222;6.480;2022-08-19T07:51:05;26.70;96.20
36498;DHT22;22513;51.222;6.480;2022-08-19T07:53:31;26.40;96.40
36498;DHT22;22513;51.222;6.480;2022-08-19T07:55:59;26.00;96.90
36498;DHT22;22513;51.222;6.480;2022-08-19T07:58:28;25.80;97.20
36498;DHT22;22513;51.222;6.480;2022-08-19T08:00:54;25.80;97.90
36498;DHT22;22513;51.222;6.480;2022-08-19T08:03:21;26.40;97.80
36498;DHT22;22513;51.222;6.480;2022-08-19T08:06:07;26.70;97.00
36498;DHT22;22513;51.222;6.480;2022-08-19T08:08:52;26.90;96.10
36498;DHT22;22513;51.222;6.480;2022-08-19T08:11:37;26.80;95.80
36498;DHT22;22513;51.222;6.480;2022-08-19T08:14:03;26.70;96.00
36498;DHT22;22513;51.222;6.480;2022-08-19T08:16:34;26.70;96.10
36498;DHT22;22513;51.222;6.480;2022-08-19T08:19:00;26.90;96.30
36498;DHT22;22513;51.222;6.480;2022-08-19T08:21:26;27.10;95.50
36498;DHT22;22513;51.222;6.480;2022-08-19T08:23:51;27.40;96.10
36498;DHT22;22513;51.222;6.480;2022-08-19T08:26:18;28.10;95.00
36498;DHT22;22513;51.222;6.480;2022-08-19T08:28:44;28.80;93.80
36498;DHT22;22513;51.222;6.480;2022-08-19T08:31:10;29.40;92.40
36498;DHT22;22513;51.222;6.480;2022-08-19T08:33:36;29.70;92.10
36498;DHT22;22513;51.222;6.480;2022-08-19T08:36:05;30.00;91.00
36498;DHT22;22513;51.222;6.480;2022-08-19T08:38:32;30.30;90.40
36498;DHT22;22513;51.222;6.480;2022-08-19T08:41:03;30.50;88.00
36498;DHT22;22513;51.222;6.480;2022-08-19T08:43:39;30.10;86.00
36498;DHT22;22513;51.222;6.480;2022-08-19T08:46:12;30.00;85.00
36498;DHT22;22513;51.222;6.480;2022-08-19T08:49:06;29.40;85.30
36498;DHT22;22513;51.222;6.480;2022-08-19T08:51:45;28.90;86.50
36498;DHT22;22513;51.222;6.480;2022-08-19T08:54:18;28.80;86.90
36498;DHT22;22513;51.222;6.480;2022-08-19T08:56:46;28.40;87.60
36498;DHT22;22513;51.222;6.480;2022-08-19T08:59:30;28.00;88.90
36498;DHT22;22513;51.222;6.480;2022-08-19T09:01:58;28.10;89.30
36498;DHT22;22513;51.222;6.480;2022-08-19T09:04:24;28.20;88.40
36498;DHT22;22513;51.222;6.480;2022-08-19T09:09:41;28.20;86.90
36498;DHT22;22513;51.222;6.480;2022-08-19T09:14:55;27.60;87.70
36498;DHT22;22513;51.222;6.480;2022-08-19T09:17:26;27.40;88.70
36498;DHT22;22513;51.222;6.480;2022-08-19T09:22:39;26.90;89.90
36498;DHT22;22513;51.222;6.480;2022-08-19T09:25:07;26.80;90.20
36498;DHT22;22513;51.222;6.480;2022-08-19T09:27:35;26.90;90.00
36498;DHT22;22513;51.222;6.480;2022-08-19T09:30:03;26.90;89.40
36498;DHT22;22513;51.222;6.480;2022-08-19T09:32:30;26.90;89.00
36498;DHT22;22513;51.222;6.480;2022-08-19T09:34:56;26.70;89.10
36498;DHT22;22513;51.222;6.480;2022-08-19T09:37:23;26.70;89.70
36498;DHT22;22513;51.222;6.480;2022-08-19T09:39:50;26.50;90.00
36498;DHT22;22513;51.222;6.480;2022-08-19T09:42:15;26.30;90.30
36498;DHT22;22513;51.222;6.480;2022-08-19T09:44:42;26.10;90.70
36498;DHT22;22513;51.222;6.480;2022-08-19T09:47:10;26.20;90.60
36498;DHT22;22513;51.222;6.480;2022-08-19T09:49:36;26.40;90.60
36498;DHT22;22513;51.222;6.480;2022-08-19T09:52:03;26.50;90.10
36498;DHT22;22513;51.222;6.480;2022-08-19T09:54:29;26.50;90.00
36498;DHT22;22513;51.222;6.480;2022-08-19T09:59:20;26.70;90.00
36498;DHT22;22513;51.222;6.480;2022-08-19T10:01:46;26.70;89.60
36498;DHT22;22513;51.222;6.480;2022-08-19T10:04:12;26.70;90.10
36498;DHT22;22513;51.222;6.480;2022-08-19T10:06:39;26.80;90.30
36498;DHT22;22513;51.222;6.480;2022-08-19T10:09:06;26.80;90.40
36498;DHT22;22513;51.222;6.480;2022-08-19T10:11:34;26.90;90.40
36498;DHT22;22513;51.222;6.480;2022-08-19T10:14:01;27.00;90.40
36498;DHT22;22513;51.222;6.480;2022-08-19T10:16:27;27.10;90.40
36498;DHT22;22513;51.222;6.480;2022-08-19T10:18:54;27.30;90.10
36498;DHT22;22513;51.222;6.480;2022-08-19T10:21:24;27.30;90.10
36498;DHT22;22513;51.222;6.480;2022-08-19T10:23:52;27.40;89.70
36498;DHT22;22513;51.222;6.480;2022-08-19T10:26:24;27.30;89.60
36498;DHT22;22513;51.222;6.480;2022-08-19T10:28:50;27.20;89.90
36498;DHT22;22513;51.222;6.480;2022-08-19T10:31:22;27.30;88.60
36498;DHT22;22513;51.222;6.480;2022-08-19T10:33:49;27.60;88.40
36498;DHT22;22513;51.222;6.480;2022-08-19T10:36:18;27.90;87.30
36498;DHT22;22513;51.222;6.480;2022-08-19T10:38:47;28.10;86.60
36498;DHT22;22513;51.222;6.480;2022-08-19T10:41:17;28.40;85.20
36498;DHT22;22513;51.222;6.480;2022-08-19T10:43:43;28.40;84.80
36498;DHT22;22513;51.222;6.480;2022-08-19T10:46:13;28.20;84.40
36498;DHT22;22513;51.222;6.480;2022-08-19T10:48:40;28.10;84.10
36498;DHT22;22513;51.222;6.480;2022-08-19T10:51:06;27.80;84.70
36498;DHT22;22513;51.222;6.480;2022-08-19T10:53:51;27.60;84.40
36498;DHT22;22513;51.222;6.480;2022-08-19T10:56:17;27.20;85.00
36498;DHT22;22513;51.222;6.480;2022-08-19T10:59:02;27.00;85.90
36498;DHT22;22513;51.222;6.480;2022-08-19T11:01:29;26.80;86.10
36498;DHT22;22513;51.222;6.480;2022-08-19T11:03:56;26.70;86.30
36498;DHT22;22513;51.222;6.480;2022-08-19T11:06:23;26.50;86.50
36498;DHT22;22513;51.222;6.480;2022-08-19T11:08:54;26.30;87.60
36498;DHT22;22513;51.222;6.480;2022-08-19T11:11:20;26.30;87.90
36498;DHT22;22513;51.222;6.480;2022-08-19T11:13:47;26.50;88.20
36498;DHT22;22513;51.222;6.480;2022-08-19T11:16:15;26.60;88.10
36498;DHT22;22513;51.222;6.480;2022-08-19T11:18:44;26.80;86.90
36498;DHT22;22513;51.222;6.480;2022-08-19T11:21:24;26.90;84.70
36498;DHT22;22513;51.222;6.480;2022-08-19T11:23:54;26.80;83.60
36498;DHT22;22513;51.222;6.480;2022-08-19T11:26:22;26.80;84.70
36498;DHT22;22513;51.222;6.480;2022-08-19T11:28:49;26.80;83.20
36498;DHT22;22513;51.222;6.480;2022-08-19T11:31:19;26.70;83.10
36498;DHT22;22513;51.222;6.480;2022-08-19T11:33:46;26.60;84.70
36498;DHT22;22513;51.222;6.480;2022-08-19T11:36:13;26.60;84.90
36498;DHT22;22513;51.222;6.480;2022-08-19T11:38:39;26.50;84.80
36498;DHT22;22513;51.222;6.480;2022-08-19T11:41:06;26.40;85.20
36498;DHT22;22513;51.222;6.480;2022-08-19T11:43:35;26.20;83.60
36498;DHT22;22513;51.222;6.480;2022-08-19T11:46:10;26.20;83.80
36498;DHT22;22513;51.222;6.480;2022-08-19T11:48:36;26.20;84.30
36498;DHT22;22513;51.222;6.480;2022-08-19T11:51:05;26.30;84.20
36498;DHT22;22513;51.222;6.480;2022-08-19T11:53:32;26.40;84.60
36498;DHT22;22513;51.222;6.480;2022-08-19T11:55:58;26.50;84.10
36498;DHT22;22513;51.222;6.480;2022-08-19T11:58:24;26.60;83.50
36498;DHT22;22513;51.222;6.480;2022-08-19T12:00:51;26.60;83.30
36498;DHT22;22513;51.222;6.480;2022-08-19T12:03:16;26.60;83.50
36498;DHT22;22513;51.222;6.480;2022-08-19T12:05:44;26.60;84.00
36498;DHT22;22513;51.222;6.480;2022-08-19T12:08:09;26.50;82.60
36498;DHT22;22513;51.222;6.480;2022-08-19T12:10:37;26.60;82.30
36498;DHT22;22513;51.222;6.480;2022-08-19T12:13:02;26.70;81.00
36498;DHT22;22513;51.222;6.480;2022-08-19T12:15:28;26.70;79.90
36498;DHT22;22513;51.222;6.480;2022-08-19T12:17:55;26.60;79.00
36498;DHT22;22513;51.222;6.480;2022-08-19T12:20:23;26.50;79.60
36498;DHT22;22513;51.222;6.480;2022-08-19T12:22:50;26.50;81.30
36498;DHT22;22513;51.222;6.480;2022-08-19T12:25:16;26.50;81.40
36498;DHT22;22513;51.222;6.480;2022-08-19T12:27:42;26.50;81.70
36498;DHT22;22513;51.222;6.480;2022-08-19T12:30:10;26.60;80.70
36498;DHT22;22513;51.222;6.480;2022-08-19T12:32:36;26.70;80.70
36498;DHT22;22513;51.222;6.480;2022-08-19T12:35:01;26.80;80.40
36498;DHT22;22513;51.222;6.480;2022-08-19T12:37:27;26.80;80.10
36498;DHT22;22513;51.222;6.480;2022-08-19T12:39:53;26.60;79.20
36498;DHT22;22513;51.222;6.480;2022-08-19T12:42:18;26.40;80.60
36498;DHT22;22513;51.222;6.480;2022-08-19T12:44:44;26.40;80.40
36498;DHT22;22513;51.222;6.480;2022-08-19T12:47:12;26.40;81.00
36498;DHT22;22513;51.222;6.480;2022-08-19T12:49:40;26.40;81.10
36498;DHT22;22513;51.222;6.480;2022-08-19T12:52:08;26.40;80.00
36498;DHT22;22513;51.222;6.480;2022-08-19T12:54:35;26.30;79.50
36498;DHT22;22513;51.222;6.480;2022-08-19T12:57:05;26.10;79.10
36498;DHT22;22513;51.222;6.480;2022-08-19T12:59:31;26.00;78.40
36498;DHT22;22513;51.222;6.480;2022-08-19T13:01:56;25.80;77.00
36498;DHT22;22513;51.222;6.480;2022-08-19T13:04:22;25.80;76.30
36498;DHT22;22513;51.222;6.480;2022-08-19T13:06:49;25.70;76.40
36498;DHT22;22513;51.222;6.480;2022-08-19T13:09:14;25.70;74.20
36498;DHT22;22513;51.222;6.480;2022-08-19T13:11:40;25.70;73.50
36498;DHT22;22513;51.222;6.480;2022-08-19T13:14:06;25.70;74.00
36498;DHT22;22513;51.222;6.480;2022-08-19T13:16:31;25.70;74.80
36498;DHT22;22513;51.222;6.480;2022-08-19T13:18:58;25.70;74.30
36498;DHT22;22513;51.222;6.480;2022-08-19T13:21:26;25.80;71.40
36498;DHT22;22513;51.222;6.480;2022-08-19T13:23:53;25.90;74.00
36498;DHT22;22513;51.222;6.480;2022-08-19T13:26:20;25.80;74.90
36498;DHT22;22513;51.222;6.480;2022-08-19T13:28:46;25.80;75.50
36498;DHT22;22513;51.222;6.480;2022-08-19T13:31:32;26.00;75.40
36498;DHT22;22513;51.222;6.480;2022-08-19T13:34:19;26.00;74.30
36498;DHT22;22513;51.222;6.480;2022-08-19T13:36:52;26.00;73.50
36498;DHT22;22513;51.222;6.480;2022-08-19T13:39:18;26.10;71.50
36498;DHT22;22513;51.222;6.480;2022-08-19T13:41:45;26.20;73.60
36498;DHT22;22513;51.222;6.480;2022-08-19T13:44:13;26.10;75.10
36498;DHT22;22513;51.222;6.480;2022-08-19T13:46:39;26.10;75.50
36498;DHT22;22513;51.222;6.480;2022-08-19T13:49:05;26.20;74.70
36498;DHT22;22513;51.222;6.480;2022-08-19T13:51:31;26.10;74.10
36498;DHT22;22513;51.222;6.480;2022-08-19T13:53:57;26.20;74.20
36498;DHT22;22513;51.222;6.480;2022-08-19T13:56:22;26.20;74.00
36498;DHT22;22513;51.222;6.480;2022-08-19T13:58:51;26.40;75.00
36498;DHT22;22513;51.222;6.480;2022-08-19T14:01:21;26.40;76.10
36498;DHT22;22513;51.222;6.480;2022-08-19T14:03:47;26.40;77.60
36498;DHT22;22513;51.222;6.480;2022-08-19T14:06:13;26.40;78.00
36498;DHT22;22513;51.222;6.480;2022-08-19T14:08:38;26.30;77.50
36498;DHT22;22513;51.222;6.480;2022-08-19T14:11:07;26.30;77.40
36498;DHT22;22513;51.222;6.480;2022-08-19T14:13:33;26.40;77.00
36498;DHT22;22513;51.222;6.480;2022-08-19T14:16:07;26.40;76.50
36498;DHT22;22513;51.222;6.480;2022-08-19T14:18:33;26.50;76.00
36498;DHT22;22513;51.222;6.480;2022-08-19T14:20:58;26.50;76.30
36498;DHT22;22513;51.222;6.480;2022-08-19T14:23:24;26.60;77.00
36498;DHT22;22513;51.222;6.480;2022-08-19T14:25:49;26.60;77.10
36498;DHT22;22513;51.222;6.480;2022-08-19T14:28:15;26.50;76.80
36498;DHT22;22513;51.222;6.480;2022-08-19T14:30:42;26.40;77.60
36498;DHT22;22513;51.222;6.480;2022-08-19T14:33:10;26.30;77.90
36498;DHT22;22513;51.222;6.480;2022-08-19T14:35:36;26.30;79.30
36498;DHT22;22513;51.222;6.480;2022-08-19T14:38:03;26.40;80.10
36498;DHT22;22513;51.222;6.480;2022-08-19T14:40:30;26.60;80.60
36498;DHT22;22513;51.222;6.480;2022-08-19T14:43:01;26.70;80.70
36498;DHT22;22513;51.222;6.480;2022-08-19T14:45:30;26.60;80.60
36498;DHT22;22513;51.222;6.480;2022-08-19T14:47:56;26.30;81.50
36498;DHT22;22513;51.222;6.480;2022-08-19T14:50:22;26.30;82.50
36498;DHT22;22513;51.222;6.480;2022-08-19T14:52:48;26.20;83.00
36498;DHT22;22513;51.222;6.480;2022-08-19T14:55:16;26.20;83.80
36498;DHT22;22513;51.222;6.480;2022-08-19T14:57:42;26.20;83.60
36498;DHT22;22513;51.222;6.480;2022-08-19T15:00:09;26.20;84.70
36498;DHT22;22513;51.222;6.480;2022-08-19T15:02:39;26.10;85.60
36498;DHT22;22513;51.222;6.480;2022-08-19T15:05:05;25.80;86.30
36498;DHT22;22513;51.222;6.480;2022-08-19T15:07:30;25.80;87.30
36498;DHT22;22513;51.222;6.480;2022-08-19T15:09:57;25.60;88.30
36498;DHT22;22513;51.222;6.480;2022-08-19T15:12:23;25.60;89.60
36498;DHT22;22513;51.222;6.480;2022-08-19T15:14:49;25.60;90.00
36498;DHT22;22513;51.222;6.480;2022-08-19T15:17:17;25.60;89.90
36498;DHT22;22513;51.222;6.480;2022-08-19T15:19:44;25.60;90.10
36498;DHT22;22513;51.222;6.480;2022-08-19T15:22:11;25.60;90.20
36498;DHT22;22513;51.222;6.480;2022-08-19T15:24:36;25.50;90.50
36498;DHT22;22513;51.222;6.480;2022-08-19T15:27:03;25.50;90.60
36498;DHT22;22513;51.222;6.480;2022-08-19T15:29:30;25.50;90.60
36498;DHT22;22513;51.222;6.480;2022-08-19T15:31:58;25.50;90.50
36498;DHT22;22513;51.222;6.480;2022-08-19T15:34:24;25.60;90.50
36498;DHT22;22513;51.222;6.480;2022-08-19T15:36:51;25.60;90.50
36498;DHT22;22513;51.222;6.480;2022-08-19T15:39:17;25.70;90.60
36498;DHT22;22513;51.222;6.480;2022-08-19T15:41:44;25.70;90.60
36498;DHT22;22513;51.222;6.480;2022-08-19T15:44:14;25.80;90.50
36498;DHT22;22513;51.222;6.480;2022-08-19T15:46:42;25.80;90.60